createdAt,value
2022-11-07T00:02:37.320Z,1.30
2022-11-07T00:06:39.166Z,0.68
2022-11-07T00:10:40.619Z,0.90
2022-11-07T00:14:42.264Z,0.90
2022-11-07T00:18:46.515Z,0.90
2022-11-07T00:22:48.445Z,1.00
2022-11-07T00:26:50.424Z,1.13
2022-11-07T00:30:51.915Z,1.02
2022-11-07T00:34:53.599Z,1.10
2022-11-07T00:38:56.044Z,0.85
2022-11-07T00:42:57.577Z,0.80
2022-11-07T00:46:59.068Z,0.80
2022-11-07T00:51:18.672Z,1.08
2022-11-07T00:55:20.778Z,0.90
2022-11-07T00:59:22.575Z,1.35
2022-11-07T01:03:42.920Z,0.93
2022-11-07T01:07:44.366Z,1.10
2022-11-07T01:11:46.925Z,1.00
2022-11-07T01:15:48.482Z,0.80
2022-11-07T01:19:49.956Z,1.00
2022-11-07T01:23:51.374Z,0.95
2022-11-07T01:27:53.020Z,0.90
2022-11-07T01:31:54.492Z,1.13
2022-11-07T01:36:05.701Z,0.80
2022-11-07T01:40:08.345Z,1.38
2022-11-07T01:44:10.046Z,0.88
2022-11-07T01:48:12.292Z,1.17
2022-11-07T01:52:29.686Z,1.17
2022-11-07T01:56:34.272Z,1.25
2022-11-07T02:00:36.506Z,1.10
2022-11-07T02:04:38.375Z,1.13
2022-11-07T02:08:40.280Z,1.55
2022-11-07T02:12:42.089Z,1.35
2022-11-07T02:16:43.783Z,1.85
2022-11-07T02:20:46.763Z,1.08
2022-11-07T02:24:51.735Z,1.33
2022-11-07T02:28:55.023Z,1.02
2022-11-07T02:32:56.955Z,1.20
2022-11-07T02:36:59.485Z,0.80
2022-11-07T02:41:05.051Z,1.20
2022-11-07T02:45:07.070Z,1.05
2022-11-07T02:49:09.379Z,1.63
2022-11-07T02:53:11.334Z,1.00
2022-11-07T02:57:12.943Z,1.13
2022-11-07T03:01:15.145Z,1.38
2022-11-07T03:05:19.996Z,0.90
2022-11-07T03:09:21.521Z,1.00
2022-11-07T03:13:23.509Z,1.00
2022-11-07T03:17:25.162Z,0.80
2022-11-07T03:21:26.651Z,0.80
2022-11-07T03:25:28.276Z,1.20
2022-11-07T03:29:29.689Z,0.90
2022-11-07T03:33:31.697Z,1.35
2022-11-07T03:37:34.419Z,1.10
2022-11-07T03:41:35.949Z,1.02
2022-11-07T03:45:37.480Z,1.20
2022-11-07T03:49:39.090Z,1.52
2022-11-07T03:53:40.611Z,1.00
2022-11-07T03:57:42.820Z,0.85
2022-11-07T04:01:45.566Z,0.90
2022-11-07T04:05:47.366Z,1.02
2022-11-07T04:09:49.312Z,0.90
2022-11-07T04:14:09.935Z,1.30
2022-11-07T04:18:11.793Z,1.00
2022-11-07T04:22:13.687Z,1.40
2022-11-07T04:26:33.866Z,0.90
2022-11-07T04:30:35.902Z,1.10
2022-11-07T04:34:38.753Z,1.15
2022-11-07T04:38:40.192Z,1.40
2022-11-07T04:42:42.088Z,0.80
2022-11-07T04:46:43.522Z,1.30
2022-11-07T04:50:45.995Z,1.10
2022-11-07T04:54:48.948Z,1.20
2022-11-07T04:58:50.601Z,1.10
2022-11-07T05:02:52.127Z,0.90
2022-11-07T05:06:54.621Z,1.20
2022-11-07T05:10:56.096Z,1.17
2022-11-07T05:14:58.596Z,1.30
2022-11-07T05:19:00.464Z,1.23
2022-11-07T05:23:20.834Z,1.27
2022-11-07T05:27:23.227Z,1.20
2022-11-07T05:31:24.841Z,1.40
2022-11-07T05:35:28.524Z,1.33
2022-11-07T05:39:32.051Z,1.30
2022-11-07T05:43:33.769Z,1.42
2022-11-07T05:47:35.198Z,1.33
2022-11-07T05:51:38.047Z,1.50
2022-11-07T05:55:39.820Z,1.50
2022-11-07T05:59:41.424Z,1.73
2022-11-07T06:03:43.289Z,1.30
2022-11-07T06:07:44.696Z,1.23
2022-11-07T06:11:46.291Z,1.85
2022-11-07T06:15:48.346Z,1.23
2022-11-07T06:19:50.030Z,1.73
2022-11-07T06:23:51.538Z,1.77
2022-11-07T06:27:53.255Z,1.98
2022-11-07T06:31:56.564Z,2.03
2022-11-07T06:36:08.841Z,1.65
2022-11-07T06:40:11.104Z,1.55
2022-11-07T06:44:12.904Z,1.60
2022-11-07T06:48:14.899Z,1.67
2022-11-07T06:52:17.005Z,2.47
2022-11-07T06:56:18.898Z,1.33
2022-11-07T07:00:20.472Z,1.30
2022-11-07T07:04:21.987Z,1.15
2022-11-07T07:08:23.425Z,1.90
2022-11-07T07:12:26.448Z,1.45
2022-11-07T07:16:28.167Z,2.25
2022-11-07T07:20:30.499Z,2.22
2022-11-07T07:24:31.961Z,1.80
2022-11-07T07:28:33.888Z,1.70
2022-11-07T07:32:35.884Z,2.53
2022-11-07T07:36:37.585Z,1.35
2022-11-07T07:40:39.097Z,1.50
2022-11-07T07:44:41.076Z,1.88
2022-11-07T07:48:42.546Z,1.58
2022-11-07T07:52:44.537Z,0.98
2022-11-07T07:56:46.021Z,1.50
2022-11-07T08:00:51.947Z,1.77
2022-11-07T08:04:53.985Z,2.78
2022-11-07T08:08:56.119Z,1.75
2022-11-07T08:12:58.104Z,1.98
2022-11-07T08:16:59.597Z,2.03
2022-11-07T08:21:02.090Z,1.70
2022-11-07T08:25:04.655Z,2.00
2022-11-07T08:29:06.524Z,2.22
2022-11-07T08:33:08.981Z,2.00
2022-11-07T08:37:10.653Z,2.03
2022-11-07T08:41:12.227Z,1.90
2022-11-07T08:45:13.876Z,1.70
2022-11-07T08:49:15.589Z,1.52
2022-11-07T08:53:20.340Z,1.60
2022-11-07T08:57:22.233Z,1.90
2022-11-07T09:01:23.965Z,1.25
2022-11-07T09:05:25.525Z,2.35
2022-11-07T09:09:28.727Z,2.20
2022-11-07T09:13:32.100Z,1.90
2022-11-07T09:17:33.565Z,1.52
2022-11-07T09:21:35.779Z,1.80
2022-11-07T09:25:38.622Z,1.55
2022-11-07T09:29:40.425Z,1.52
2022-11-07T09:33:41.873Z,1.80
2022-11-07T09:37:45.208Z,1.60
2022-11-07T09:42:21.365Z,1.30
2022-11-07T09:46:33.438Z,1.25
2022-11-07T09:50:38.857Z,1.42
2022-11-07T09:54:46.871Z,1.17
2022-11-07T09:58:54.758Z,1.30
2022-11-07T10:02:58.346Z,1.70
2022-11-07T10:07:04.669Z,1.80
2022-11-07T10:11:13.696Z,1.45
2022-11-07T10:15:40.520Z,1.02
2022-11-07T10:19:51.024Z,2.63
2022-11-07T10:24:07.960Z,1.25
2022-11-07T10:28:14.936Z,1.43
2022-11-07T10:32:36.176Z,2.40
2022-11-07T10:36:37.669Z,1.45
2022-11-07T10:40:40.654Z,1.30
2022-11-07T10:44:43.433Z,1.08
2022-11-07T10:48:52.668Z,1.23
2022-11-07T10:53:10.213Z,1.23
2022-11-07T10:57:13.975Z,1.45
2022-11-07T11:01:24.041Z,1.30
2022-11-07T11:05:33.242Z,1.10
2022-11-07T11:09:35.837Z,1.05
2022-11-07T11:13:37.421Z,1.35
2022-11-07T11:17:39.129Z,1.58
2022-11-07T11:21:45.460Z,1.40
2022-11-07T11:25:49.302Z,1.48
2022-11-07T11:30:17.156Z,0.93
2022-11-07T11:34:39.868Z,1.20
2022-11-07T11:38:42.558Z,0.75
2022-11-07T11:43:08.010Z,2.15
2022-11-07T11:47:23.669Z,1.25
2022-11-07T11:51:38.627Z,1.00
2022-11-07T11:55:52.192Z,1.30
2022-11-07T11:59:57.133Z,1.08
2022-11-07T12:04:26.896Z,0.82
2022-11-07T12:08:56.464Z,0.95
2022-11-07T12:13:33.785Z,0.70
2022-11-07T12:18:02.747Z,1.58
2022-11-07T12:22:16.983Z,1.00
2022-11-07T12:26:26.971Z,1.83
2022-11-07T12:30:46.734Z,1.45
2022-11-07T12:35:20.541Z,0.95
2022-11-07T12:39:46.732Z,0.90
2022-11-07T12:43:58.408Z,1.33
2022-11-07T12:48:11.896Z,0.98
2022-11-07T12:52:36.118Z,0.85
2022-11-07T12:56:39.554Z,1.50
2022-11-07T13:00:41.488Z,1.00
2022-11-07T13:04:53.763Z,0.90
2022-11-07T13:09:06.878Z,0.90
2022-11-07T13:13:18.095Z,0.95
2022-11-07T13:17:24.357Z,0.90
2022-11-07T13:21:25.921Z,0.98
2022-11-07T13:25:34.890Z,0.70
2022-11-07T13:29:38.611Z,1.15
2022-11-07T13:33:41.083Z,1.02
2022-11-07T13:37:48.104Z,1.00
2022-11-07T13:41:49.722Z,1.05
2022-11-07T13:45:55.759Z,0.70
2022-11-07T13:50:03.857Z,1.60
2022-11-07T13:54:14.054Z,1.10
2022-11-07T13:58:17.232Z,1.17
2022-11-07T14:02:25.098Z,1.48
2022-11-07T14:06:27.057Z,2.50
2022-11-07T14:10:40.046Z,1.35
2022-11-07T14:14:41.582Z,1.00
2022-11-07T14:18:47.648Z,0.88
2022-11-07T14:22:51.042Z,1.00
2022-11-07T14:27:07.442Z,0.90
2022-11-07T14:31:20.686Z,1.38
2022-11-07T14:35:31.625Z,1.27
2022-11-07T14:39:33.757Z,1.30
2022-11-07T14:43:35.741Z,1.20
2022-11-07T14:47:37.953Z,1.92
2022-11-07T14:51:39.845Z,1.10
2022-11-07T14:55:48.503Z,1.02
2022-11-07T14:59:52.078Z,1.30
2022-11-07T15:04:00.267Z,0.95
2022-11-07T15:08:03.667Z,0.90
2022-11-07T15:12:16.311Z,2.05
2022-11-07T15:16:19.825Z,1.00
2022-11-07T15:20:41.696Z,1.45
2022-11-07T15:24:45.551Z,1.20
2022-11-07T15:28:49.137Z,1.30
2022-11-07T15:32:50.750Z,1.08
2022-11-07T15:36:52.560Z,1.25
2022-11-07T15:40:54.510Z,1.55
2022-11-07T15:44:56.123Z,1.20
2022-11-07T15:49:00.999Z,1.30
2022-11-07T15:53:02.604Z,1.77
2022-11-07T15:57:05.442Z,1.60
2022-11-07T16:01:07.716Z,1.92
2022-11-07T16:05:17.621Z,1.95
2022-11-07T16:09:21.183Z,1.55
2022-11-07T16:13:25.602Z,1.90
2022-11-07T16:17:36.402Z,1.83
2022-11-07T16:22:28.411Z,1.80
2022-11-07T16:26:31.009Z,2.10
2022-11-07T16:30:33.811Z,1.88
2022-11-07T16:34:35.260Z,1.63
2022-11-07T16:38:36.885Z,1.65
2022-11-07T16:42:38.495Z,1.50
2022-11-07T16:46:40.653Z,2.15
2022-11-07T16:50:43.353Z,2.85
2022-11-07T16:55:38.801Z,4.82
2022-11-07T17:04:58.252Z,3.75
2022-11-07T17:09:10.422Z,3.13
2022-11-07T17:13:14.882Z,3.78
2022-11-07T17:17:18.064Z,3.78
2022-11-07T17:21:24.657Z,3.83
2022-11-07T17:25:49.938Z,2.83
2022-11-07T17:30:34.879Z,2.63
2022-11-07T17:34:36.273Z,3.00
2022-11-07T17:38:37.972Z,2.72
2022-11-07T17:42:39.469Z,4.57
2022-11-07T17:46:43.271Z,3.92
2022-11-07T17:50:44.946Z,4.93
2022-11-07T17:54:46.419Z,3.72
2022-11-07T17:58:49.928Z,3.40
2022-11-07T18:02:52.930Z,3.75
2022-11-07T18:06:54.727Z,3.10
2022-11-07T18:11:03.078Z,3.55
2022-11-07T18:15:05.859Z,4.00
2022-11-07T18:19:07.400Z,3.55
2022-11-07T18:23:09.054Z,3.38
2022-11-07T18:27:10.957Z,3.47
2022-11-07T18:31:17.946Z,4.00
2022-11-07T18:35:19.428Z,3.37
2022-11-07T18:39:22.177Z,4.18
2022-11-07T18:43:23.784Z,2.95
2022-11-07T18:47:25.842Z,2.88
2022-11-07T18:51:27.559Z,2.55
2022-11-07T18:55:29.368Z,2.83
2022-11-07T18:59:30.842Z,3.38
2022-11-07T19:03:33.247Z,6.20
2022-11-07T19:07:34.929Z,8.88
2022-11-07T19:11:36.458Z,8.40
2022-11-07T19:15:39.517Z,6.85
2022-11-07T19:19:41.205Z,4.90
2022-11-07T19:23:42.818Z,3.75
2022-11-07T19:27:47.192Z,5.32
2022-11-07T19:31:51.408Z,3.22
2022-11-07T19:36:01.916Z,3.33
2022-11-07T19:40:03.849Z,2.65
2022-11-07T19:44:05.576Z,2.95
2022-11-07T19:48:08.003Z,3.63
2022-11-07T19:52:09.592Z,2.42
2022-11-07T19:56:14.661Z,2.72
2022-11-07T20:00:17.322Z,2.65
2022-11-07T20:04:18.798Z,3.45
2022-11-07T20:08:20.390Z,3.22
2022-11-07T20:12:22.069Z,3.38
2022-11-07T20:16:23.637Z,2.50
2022-11-07T20:20:25.120Z,2.25
2022-11-07T20:24:27.535Z,2.78
2022-11-07T20:28:29.198Z,2.90
2022-11-07T20:32:30.807Z,2.58
2022-11-07T20:36:33.409Z,2.88
2022-11-07T20:40:35.018Z,2.90
2022-11-07T20:44:36.581Z,2.90
2022-11-07T20:48:38.701Z,3.50
2022-11-07T20:52:41.879Z,2.50
2022-11-07T20:56:43.969Z,2.70
2022-11-07T21:00:47.205Z,3.67
2022-11-07T21:05:16.212Z,2.45
2022-11-07T21:09:11.460Z,3.83
2022-11-07T21:13:14.611Z,3.00
2022-11-07T21:17:16.866Z,3.35
2022-11-07T21:21:24.354Z,3.30
2022-11-07T21:25:25.905Z,4.05
2022-11-07T21:29:29.935Z,3.85
2022-11-07T21:33:32.029Z,3.80
2022-11-07T21:37:34.566Z,3.92
2022-11-07T21:41:37.018Z,3.17
2022-11-07T21:45:38.876Z,2.67
2022-11-07T21:49:41.023Z,2.50
2022-11-07T21:53:44.570Z,3.67
2022-11-07T21:57:46.264Z,2.58
2022-11-07T22:01:48.931Z,3.40
2022-11-07T22:05:52.237Z,4.00
2022-11-07T22:09:53.957Z,3.97
2022-11-07T22:13:55.947Z,3.50
2022-11-07T22:17:59.582Z,4.47
2022-11-07T22:22:01.186Z,3.40
2022-11-07T22:26:30.440Z,3.40
2022-11-07T22:30:32.034Z,3.13
2022-11-07T22:34:33.669Z,3.60
2022-11-07T22:38:35.906Z,2.90
2022-11-07T22:42:37.733Z,3.03
2022-11-07T22:46:39.333Z,3.60
2022-11-07T22:50:43.179Z,4.03
2022-11-07T22:54:45.165Z,3.50
2022-11-07T22:58:47.520Z,3.17
2022-11-07T23:02:49.198Z,3.47
2022-11-07T23:06:50.757Z,3.60
2022-11-07T23:11:40.255Z,3.35
2022-11-07T23:15:21.463Z,3.42
2022-11-07T23:19:25.758Z,4.72
2022-11-07T23:23:27.634Z,4.30
2022-11-07T23:27:29.976Z,3.95
2022-11-07T23:31:31.931Z,4.32
2022-11-07T23:35:33.548Z,4.75
2022-11-07T23:39:35.066Z,3.95
2022-11-07T23:43:36.634Z,4.57
2022-11-07T23:47:56.579Z,4.53
2022-11-07T23:51:58.381Z,4.75
2022-11-07T23:56:01.967Z,4.78
